createdAt,value
2022-09-12T00:00:05.215Z,15.25
2022-09-12T00:04:14.592Z,15.05
2022-09-12T00:08:22.817Z,14.60
2022-09-12T00:12:20.629Z,14.22
2022-09-12T00:16:28.881Z,14.19
2022-09-12T00:20:37.134Z,15.14
2022-09-12T00:24:45.349Z,14.96
2022-09-12T00:28:53.468Z,14.45
2022-09-12T00:33:03.667Z,14.02
2022-09-12T00:37:12.833Z,14.03
2022-09-12T00:41:20.972Z,14.92
2022-09-12T00:45:29.227Z,14.71
2022-09-12T00:49:30.234Z,14.23
2022-09-12T00:53:30.692Z,13.83
2022-09-12T00:57:34.074Z,13.86
2022-09-12T01:01:42.410Z,14.70
2022-09-12T01:05:33.783Z,14.50
2022-09-12T01:09:42.038Z,14.08
2022-09-12T01:13:51.176Z,13.66
2022-09-12T01:17:53.215Z,13.68
2022-09-12T01:22:11.991Z,14.67
2022-09-12T01:26:23.988Z,14.51
2022-09-12T01:30:41.309Z,14.00
2022-09-12T01:34:54.997Z,13.55
2022-09-12T01:39:03.197Z,13.61
2022-09-12T01:43:20.539Z,14.62
2022-09-12T01:47:31.394Z,14.40
2022-09-12T01:51:42.575Z,14.00
2022-09-12T01:56:05.698Z,13.60
2022-09-12T02:00:13.977Z,13.68
2022-09-12T02:03:57.618Z,14.58
2022-09-12T02:08:12.790Z,14.44
2022-09-12T02:12:20.951Z,14.02
2022-09-12T02:16:31.758Z,13.61
2022-09-12T02:20:48.749Z,13.66
2022-09-12T02:24:57.182Z,14.62
2022-09-12T02:29:05.466Z,14.42
2022-09-12T02:33:13.649Z,14.04
2022-09-12T02:37:29.781Z,13.64
2022-09-12T02:41:19.616Z,13.64
2022-09-12T02:45:20.660Z,14.74
2022-09-12T02:49:34.477Z,14.67
2022-09-12T02:53:41.520Z,14.26
2022-09-12T02:58:01.770Z,13.86
2022-09-12T03:02:37.444Z,13.92
2022-09-12T03:06:54.784Z,14.91
2022-09-12T03:11:27.143Z,14.68
2022-09-12T03:15:44.558Z,14.20
2022-09-12T03:20:07.870Z,14.10
2022-09-12T03:24:18.112Z,15.03
2022-09-12T03:28:27.850Z,14.74
2022-09-12T03:32:36.056Z,14.24
2022-09-12T03:36:36.916Z,13.85
2022-09-12T03:40:45.107Z,13.85
2022-09-12T03:44:53.395Z,15.00
2022-09-12T03:49:01.570Z,14.81
2022-09-12T03:53:12.060Z,14.34
2022-09-12T03:57:25.226Z,13.90
2022-09-12T04:01:14.410Z,13.94
2022-09-12T04:05:24.585Z,14.96
2022-09-12T04:09:25.316Z,14.83
2022-09-12T04:13:33.632Z,14.32
2022-09-12T04:17:36.022Z,13.91
2022-09-12T04:21:44.243Z,13.93
2022-09-12T04:25:35.133Z,14.83
2022-09-12T04:29:33.181Z,14.67
2022-09-12T04:33:41.289Z,14.25
2022-09-12T04:37:36.105Z,14.10
2022-09-12T04:41:44.253Z,14.87
2022-09-12T04:45:22.334Z,14.72
2022-09-12T04:49:23.096Z,14.35
2022-09-12T04:52:56.097Z,13.99
2022-09-12T04:56:57.031Z,13.89
2022-09-12T05:01:03.969Z,14.90
2022-09-12T05:05:12.265Z,14.76
2022-09-12T05:08:25.841Z,14.35
2022-09-12T05:12:24.668Z,14.02
2022-09-12T05:16:23.726Z,13.96
2022-09-12T05:20:05.893Z,14.83
2022-09-12T05:24:07.198Z,14.77
2022-09-12T05:26:54.493Z,14.44
2022-09-12T05:30:22.442Z,14.21
2022-09-12T05:34:30.545Z,14.17
2022-09-12T05:38:28.598Z,15.08
2022-09-12T05:42:29.673Z,14.90
2022-09-12T05:46:20.471Z,14.50
2022-09-12T05:50:17.285Z,14.35
2022-09-12T05:54:18.749Z,15.17
2022-09-12T05:58:06.684Z,15.02
2022-09-12T06:02:08.578Z,14.62
2022-09-12T06:06:13.408Z,14.24
2022-09-12T06:10:21.651Z,14.26
2022-09-12T06:13:38.803Z,15.26
2022-09-12T06:17:24.293Z,15.25
2022-09-12T06:21:15.335Z,14.89
2022-09-12T06:24:46.948Z,14.55
2022-09-12T06:28:48.770Z,14.43
2022-09-12T06:32:50.509Z,15.49
2022-09-12T06:36:47.969Z,15.37
2022-09-12T06:40:20.042Z,14.96
2022-09-12T06:44:11.069Z,14.60
2022-09-12T06:47:51.952Z,14.52
2022-09-12T06:52:03.919Z,15.61
2022-09-12T06:55:34.924Z,15.54
2022-09-12T06:59:30.194Z,15.12
2022-09-12T07:03:38.445Z,14.69
2022-09-12T07:07:46.622Z,14.68
2022-09-12T07:11:57.188Z,15.56
2022-09-12T07:16:04.283Z,15.40
2022-09-12T07:20:11.265Z,15.00
2022-09-12T07:23:49.259Z,14.81
2022-09-12T07:27:45.414Z,15.65
2022-09-12T07:31:56.350Z,15.59
2022-09-12T07:36:04.680Z,15.16
2022-09-12T07:39:25.443Z,14.88
2022-09-12T07:43:22.685Z,14.93
2022-09-12T07:47:13.213Z,16.03
2022-09-12T07:50:20.735Z,16.18
2022-09-12T07:54:17.597Z,15.95
2022-09-12T07:58:25.782Z,15.57
2022-09-12T08:02:33.974Z,15.57
2022-09-12T08:06:32.162Z,16.54
2022-09-12T08:10:40.398Z,16.31
2022-09-12T08:14:48.507Z,15.76
2022-09-12T08:18:21.813Z,15.35
2022-09-12T08:22:13.082Z,15.29
2022-09-12T08:26:22.386Z,16.41
2022-09-12T08:30:10.463Z,16.33
2022-09-12T08:34:19.593Z,15.85
2022-09-12T08:38:27.817Z,15.35
2022-09-12T08:42:33.011Z,15.23
2022-09-12T08:46:56.429Z,16.01
2022-09-12T08:51:07.391Z,15.80
2022-09-12T08:55:11.913Z,15.39
2022-09-12T08:59:16.125Z,15.01
2022-09-12T09:02:39.679Z,15.02
2022-09-12T09:06:49.755Z,15.93
2022-09-12T09:11:14.901Z,15.91
2022-09-12T09:15:31.127Z,15.51
2022-09-12T09:19:12.004Z,15.12
2022-09-12T09:23:20.590Z,15.15
2022-09-12T09:27:50.154Z,16.11
2022-09-12T09:31:08.788Z,15.84
2022-09-12T09:35:12.834Z,15.45
2022-09-12T09:38:59.902Z,15.13
2022-09-12T09:43:15.510Z,15.18
2022-09-12T09:47:17.313Z,16.12
2022-09-12T09:51:19.155Z,15.79
2022-09-12T09:55:32.078Z,15.29
2022-09-12T09:59:36.383Z,14.84
2022-09-12T10:03:43.278Z,14.79
2022-09-12T10:07:36.840Z,15.86
2022-09-12T10:11:38.571Z,15.78
2022-09-12T10:15:38.806Z,15.39
2022-09-12T10:19:11.691Z,15.04
2022-09-12T10:23:12.613Z,15.02
2022-09-12T10:27:04.395Z,16.03
2022-09-12T10:31:00.184Z,15.97
2022-09-12T10:34:51.339Z,15.57
2022-09-12T10:38:19.330Z,15.26
2022-09-12T10:41:49.272Z,15.23
2022-09-12T10:45:43.047Z,16.09
2022-09-12T10:49:31.948Z,16.04
2022-09-12T10:53:34.725Z,15.65
2022-09-12T10:57:32.129Z,15.31
2022-09-12T11:01:31.195Z,15.29
2022-09-12T11:05:37.864Z,16.23
2022-09-12T11:09:01.341Z,16.08
2022-09-12T11:12:27.510Z,15.80
2022-09-12T11:16:47.989Z,15.38
2022-09-12T11:20:30.878Z,15.36
2022-09-12T11:24:35.038Z,16.45
2022-09-12T11:28:55.635Z,16.39
2022-09-12T11:33:05.828Z,15.97
2022-09-12T11:37:22.830Z,16.01
2022-09-12T11:41:33.899Z,16.93
2022-09-12T11:45:56.322Z,16.74
2022-09-12T11:50:13.491Z,16.33
2022-09-12T11:54:26.815Z,16.31
2022-09-12T11:58:35.042Z,16.79
2022-09-12T12:02:36.522Z,16.46
2022-09-12T12:06:33.446Z,15.97
2022-09-12T12:10:47.848Z,15.57
2022-09-12T12:14:58.880Z,15.61
2022-09-12T12:19:10.885Z,16.54
2022-09-12T12:23:19.240Z,16.18
2022-09-12T12:27:21.472Z,15.70
2022-09-12T12:30:56.800Z,15.31
2022-09-12T12:34:43.075Z,15.17
2022-09-12T12:38:22.002Z,16.24
2022-09-12T12:42:20.096Z,16.25
2022-09-12T12:46:29.700Z,15.76
2022-09-12T12:49:59.729Z,15.34
2022-09-12T12:53:53.404Z,15.30
2022-09-12T12:58:04.470Z,16.13
2022-09-12T13:02:08.047Z,15.99
2022-09-12T13:06:22.375Z,15.58
2022-09-12T13:10:33.728Z,15.45
2022-09-12T13:14:22.198Z,16.09
2022-09-12T13:18:12.638Z,15.88
2022-09-12T13:21:58.048Z,15.50
2022-09-12T13:25:51.021Z,15.37
2022-09-12T13:29:46.504Z,16.19
2022-09-12T13:33:59.441Z,15.93
2022-09-12T13:38:16.180Z,15.47
2022-09-12T13:42:21.891Z,15.01
2022-09-12T13:46:30.904Z,15.01
2022-09-12T13:50:38.126Z,15.90
2022-09-12T13:54:39.411Z,15.62
2022-09-12T13:58:48.728Z,15.14
2022-09-12T14:02:59.742Z,14.98
2022-09-12T14:06:40.379Z,15.74
2022-09-12T14:10:35.995Z,15.55
2022-09-12T14:14:02.085Z,15.08
2022-09-12T14:18:08.465Z,14.75
2022-09-12T14:22:04.770Z,14.77
2022-09-12T14:25:41.544Z,15.69
2022-09-12T14:29:22.613Z,15.56
2022-09-12T14:33:50.224Z,15.13
2022-09-12T14:37:58.507Z,14.62
2022-09-12T14:41:46.262Z,14.61
2022-09-12T14:45:40.624Z,15.51
2022-09-12T14:49:55.038Z,15.33
2022-09-12T14:53:45.877Z,14.82
2022-09-12T14:58:06.072Z,14.70
2022-09-12T15:01:54.007Z,15.51
2022-09-12T15:05:58.757Z,15.29
2022-09-12T15:10:07.899Z,14.78
2022-09-12T15:14:16.116Z,14.61
2022-09-12T15:18:08.006Z,15.38
2022-09-12T15:21:36.351Z,15.13
2022-09-12T15:25:34.403Z,14.78
2022-09-12T15:29:43.536Z,14.36
2022-09-12T15:33:51.667Z,14.59
2022-09-12T15:37:53.279Z,15.15
2022-09-12T15:41:51.430Z,14.89
2022-09-12T15:45:59.605Z,14.45
2022-09-12T15:50:09.815Z,14.40
2022-09-12T15:53:57.795Z,15.22
2022-09-12T15:57:45.976Z,14.97
2022-09-12T16:01:54.332Z,14.53
2022-09-12T16:06:38.252Z,14.37
2022-09-12T16:10:46.485Z,14.93
2022-09-12T16:14:55.722Z,14.61
2022-09-12T16:19:03.830Z,14.25
2022-09-12T16:23:12.962Z,14.32
2022-09-12T16:27:21.098Z,15.29
2022-09-12T16:31:37.212Z,15.07
2022-09-12T16:35:46.227Z,14.52
2022-09-12T16:39:44.428Z,14.43
2022-09-12T16:43:42.558Z,15.18
2022-09-12T16:47:50.718Z,14.94
2022-09-12T16:51:44.963Z,14.49
2022-09-12T16:55:53.109Z,14.35
2022-09-12T16:59:51.083Z,15.14
2022-09-12T17:03:59.067Z,14.88
2022-09-12T17:07:59.762Z,14.46
2022-09-12T17:12:01.992Z,14.34
2022-09-12T17:16:07.889Z,15.13
2022-09-12T17:19:44.562Z,14.89
2022-09-12T17:23:14.151Z,14.56
2022-09-12T17:26:54.397Z,14.41
2022-09-12T17:30:55.576Z,15.19
2022-09-12T17:35:03.850Z,15.00
2022-09-12T17:39:12.064Z,14.52
2022-09-12T17:43:14.364Z,14.42
2022-09-12T17:47:22.547Z,15.24
2022-09-12T17:51:02.033Z,14.98
2022-09-12T17:54:30.712Z,14.62
2022-09-12T17:58:28.839Z,14.48
2022-09-12T18:02:37.099Z,15.23
2022-09-12T18:06:28.642Z,15.04
2022-09-12T18:10:01.352Z,14.56
2022-09-12T18:13:24.732Z,14.35
2022-09-12T18:17:05.244Z,15.14
2022-09-12T18:21:02.522Z,15.18
2022-09-12T18:24:08.801Z,14.78
2022-09-12T18:27:56.787Z,14.45
2022-09-12T18:32:05.109Z,14.41
2022-09-12T18:36:05.914Z,15.33
2022-09-12T18:40:04.219Z,15.10
2022-09-12T18:44:05.963Z,14.64
2022-09-12T18:48:06.854Z,14.52
2022-09-12T18:51:37.143Z,15.34
2022-09-12T18:55:18.295Z,15.22
2022-09-12T18:58:59.088Z,14.83
2022-09-12T19:03:06.491Z,14.41
2022-09-12T19:07:07.336Z,14.39
2022-09-12T19:10:27.644Z,15.32
2022-09-12T19:13:54.574Z,15.28
2022-09-12T19:17:55.582Z,14.88
2022-09-12T19:21:44.975Z,14.43
2022-09-12T19:25:27.299Z,14.38
2022-09-12T19:29:32.192Z,15.35
2022-09-12T19:33:41.730Z,15.25
2022-09-12T19:37:01.660Z,14.77
2022-09-12T19:40:38.475Z,14.48
2022-09-12T19:44:12.317Z,15.23
2022-09-12T19:47:51.607Z,15.30
2022-09-12T19:51:52.077Z,14.89
2022-09-12T19:56:00.206Z,14.43
2022-09-12T20:00:01.113Z,14.36
2022-09-12T20:03:55.004Z,15.33
2022-09-12T20:08:04.115Z,15.19
2022-09-12T20:12:12.314Z,14.71
2022-09-12T20:16:04.218Z,14.58
2022-09-12T20:19:48.060Z,15.43
2022-09-12T20:23:56.339Z,15.30
2022-09-12T20:28:04.456Z,14.78
2022-09-12T20:32:01.679Z,14.61
2022-09-12T20:36:09.866Z,15.46
2022-09-12T20:40:18.165Z,15.26
2022-09-12T20:44:27.291Z,14.76
2022-09-12T20:47:55.134Z,14.64
2022-09-12T20:51:25.012Z,15.41
2022-09-12T20:55:34.300Z,15.42
2022-09-12T20:59:41.304Z,14.98
2022-09-12T21:03:43.440Z,14.52
2022-09-12T21:07:50.880Z,14.47
2022-09-12T21:11:59.085Z,15.48
2022-09-12T21:16:07.414Z,15.28
2022-09-12T21:20:10.620Z,14.77
2022-09-12T21:24:20.522Z,14.61
2022-09-12T21:28:19.252Z,15.41
2022-09-12T21:32:19.000Z,15.19
2022-09-12T21:36:29.886Z,14.69
2022-09-12T21:40:38.018Z,14.60
2022-09-12T21:44:46.251Z,15.51
2022-09-12T21:48:55.483Z,15.24
2022-09-12T21:52:56.579Z,14.76
2022-09-12T21:57:04.816Z,14.62
2022-09-12T22:01:13.118Z,15.47
2022-09-12T22:05:21.274Z,15.17
2022-09-12T22:09:07.060Z,14.72
2022-09-12T22:13:15.797Z,14.52
2022-09-12T22:17:24.084Z,15.46
2022-09-12T22:21:32.866Z,15.30
2022-09-12T22:25:40.941Z,14.85
2022-09-12T22:29:49.095Z,14.71
2022-09-12T22:33:47.456Z,15.56
2022-09-12T22:37:55.589Z,15.35
2022-09-12T22:42:03.589Z,14.86
2022-09-12T22:46:10.650Z,14.73
2022-09-12T22:50:18.803Z,15.59
2022-09-12T22:54:28.024Z,15.35
2022-09-12T22:58:36.147Z,14.88
2022-09-12T23:02:45.509Z,14.77
2022-09-12T23:06:54.660Z,15.63
2022-09-12T23:11:03.892Z,15.36
2022-09-12T23:15:12.040Z,14.87
2022-09-12T23:19:11.926Z,14.74
2022-09-12T23:23:18.582Z,15.55
2022-09-12T23:27:26.785Z,15.32
2022-09-12T23:31:37.611Z,14.85
2022-09-12T23:35:50.435Z,14.74
2022-09-12T23:39:58.611Z,15.51
2022-09-12T23:43:56.743Z,15.27
2022-09-12T23:48:04.881Z,14.86
2022-09-12T23:52:12.978Z,14.76
2022-09-12T23:56:21.129Z,15.71
